Time;durP1;ratioP1;P1;durP2;ratioP2;P2;SDS_P1;SDS_P2;PMS_P1;PMS_P2;Temp;Humidity;BMP_temperature;BMP_pressure;BME280_temperature;BME280_humidity;BME280_pressure;Samples;Min_cycle;Max_cycle;Signal;HPM_P1;HPM_P2
2022/10/29 00:00:15;;;;;;;12.17;5.27;;;;;;;16.42;81.79;101336.03;5095463;28;20632;-82
2022/10/29 00:02:42;;;;;;;12.03;5.33;;;;;;;16.41;81.89;101341.53;5096108;28;20215;-80
2022/10/29 00:05:09;;;;;;;12.23;5.00;;;;;;;16.38;81.94;101345.31;5095195;28;20215;-79
2022/10/29 00:07:35;;;;;;;10.97;4.83;;;;;;;16.36;82.03;101354.44;5095244;28;20750;-81
2022/10/29 00:10:03;;;;;;;12.13;5.00;;;;;;;16.34;82.11;101354.56;5093137;28;20680;-80
2022/10/29 00:12:30;;;;;;;13.97;4.67;;;;;;;16.31;82.27;101360.16;5092711;28;20232;-81
2022/10/29 00:14:56;;;;;;;8.60;4.83;;;;;;;16.29;82.31;101362.16;5086191;28;20218;-81
2022/10/29 00:17:23;;;;;;;10.20;4.97;;;;;;;16.26;82.53;101362.38;5091867;28;20637;-81
2022/10/29 00:19:49;;;;;;;10.47;5.53;;;;;;;16.24;82.59;101370.56;5091457;28;20228;-81
2022/10/29 00:22:15;;;;;;;15.20;5.57;;;;;;;16.23;82.92;101363.47;5094314;28;20284;-81
2022/10/29 00:24:42;;;;;;;10.17;5.23;;;;;;;16.22;83.26;101367.13;5092128;28;20225;-81
2022/10/29 00:27:10;;;;;;;11.27;4.90;;;;;;;16.21;83.64;101368.09;5082705;28;20575;-81
2022/10/29 00:29:36;;;;;;;11.60;5.37;;;;;;;16.21;83.60;101369.91;5091475;28;20984;-81
2022/10/29 00:32:02;;;;;;;11.07;5.00;;;;;;;16.20;83.67;101363.69;5088172;28;20587;-81
2022/10/29 00:34:29;;;;;;;10.13;5.63;;;;;;;16.19;83.56;101353.03;5090370;28;20233;-80
2022/10/29 00:36:55;;;;;;;12.80;4.87;;;;;;;16.14;83.28;101358.75;5091520;28;20219;-81
2022/10/29 00:39:22;;;;;;;10.20;5.00;;;;;;;16.12;83.20;101358.00;5090845;28;20202;-81
2022/10/29 00:41:48;;;;;;;10.33;5.60;;;;;;;16.08;83.64;101356.56;5091818;28;20230;-81
2022/10/29 00:44:34;;;;;;;10.23;5.57;;;;;;;16.05;83.38;101366.66;5091755;28;20691;-81
2022/10/29 00:47:16;;;;;;;11.30;5.43;;;;;;;16.03;83.58;101364.09;5091578;28;20189;-80
2022/10/29 00:49:45;;;;;;;11.93;4.87;;;;;;;16.01;83.82;101365.19;5092412;28;20202;-82
2022/10/29 00:52:13;;;;;;;8.80;5.33;;;;;;;16.00;83.95;101374.22;5091918;28;20213;-81
2022/10/29 00:54:43;;;;;;;10.17;5.00;;;;;;;15.99;84.32;101373.34;5095975;28;20273;-80
2022/10/29 00:57:14;;;;;;;15.10;5.47;;;;;;;15.98;84.22;101369.81;5098443;28;20207;-80
2022/10/29 00:59:43;;;;;;;11.37;5.23;;;;;;;15.97;84.23;101361.84;5094027;28;20207;-80
2022/10/29 01:02:10;;;;;;;9.87;5.10;;;;;;;15.95;84.38;101367.34;5094397;28;20199;-81
2022/10/29 01:04:37;;;;;;;11.40;5.40;;;;;;;15.94;84.54;101364.78;5097743;28;20213;-81
2022/10/29 01:07:04;;;;;;;11.63;5.73;;;;;;;15.93;84.87;101379.19;5102068;28;20225;-80
2022/10/29 01:09:31;;;;;;;12.77;5.63;;;;;;;15.91;84.80;101373.94;5102212;28;20203;-80
2022/10/29 01:12:12;;;;;;;9.83;5.00;;;;;;;15.89;84.81;101365.13;5101662;28;20199;-81
2022/10/29 01:14:49;;;;;;;11.30;5.20;;;;;;;15.88;84.83;101367.94;5093405;28;20232;-81
2022/10/29 01:17:27;;;;;;;10.27;5.10;;;;;;;15.85;84.92;101369.00;5101596;28;20640;-81
2022/10/29 01:20:18;;;;;;;14.17;5.70;;;;;;;15.83;84.98;101370.94;5101375;28;20663;-80
2022/10/29 01:22:53;;;;;;;10.33;6.53;;;;;;;15.82;85.31;101363.84;5100097;28;20709;-80
2022/10/29 01:25:38;;;;;;;11.30;5.33;;;;;;;15.81;85.31;101372.03;5096670;28;20222;-81
2022/10/29 01:28:22;;;;;;;11.53;6.03;;;;;;;15.80;85.65;101364.94;5100047;28;20205;-80
2022/10/29 01:31:10;;;;;;;8.10;4.80;;;;;;;15.78;85.44;101366.88;5099696;28;20197;-81
2022/10/29 01:33:45;;;;;;;11.13;5.20;;;;;;;15.77;85.94;101357.97;5099031;28;20676;-81
2022/10/29 01:36:18;;;;;;;14.87;5.63;;;;;;;15.76;86.02;101361.66;5099075;28;20191;-82
2022/10/29 01:38:57;;;;;;;8.70;5.23;;;;;;;15.73;85.55;101364.56;5099787;28;20206;-80
2022/10/29 01:41:31;;;;;;;9.53;5.97;;;;;;;15.66;85.29;101360.59;5099261;28;20219;-80
2022/10/29 01:44:05;;;;;;;12.27;6.60;;;;;;;15.62;85.55;101367.16;5098752;28;20221;-80
2022/10/29 01:46:39;;;;;;;12.30;5.60;;;;;;;15.57;85.73;101370.19;5098915;28;20208;-81
2022/10/29 01:49:10;;;;;;;13.43;6.10;;;;;;;15.54;86.24;101372.19;5099075;28;20202;-81
2022/10/29 01:51:39;;;;;;;14.60;6.60;;;;;;;15.51;86.39;101367.91;5098215;28;20213;-80
2022/10/29 01:54:09;;;;;;;13.33;6.60;;;;;;;15.49;86.74;101366.31;5096628;28;20221;-80
2022/10/29 01:56:37;;;;;;;11.97;6.40;;;;;;;15.48;87.10;101365.44;5096832;28;20201;-81
2022/10/29 01:59:09;;;;;;;9.73;6.03;;;;;;;15.50;87.42;101373.38;5097025;28;20723;-80
2022/10/29 02:01:48;;;;;;;12.17;6.20;;;;;;;15.49;87.98;101372.53;5095542;28;20233;-80
2022/10/29 02:04:32;;;;;;;11.40;6.03;;;;;;;15.50;87.79;101384.13;5096647;28;20222;-81
2022/10/29 02:07:04;;;;;;;13.80;6.30;;;;;;;15.48;88.04;101384.22;5097023;28;20531;-81
2022/10/29 02:09:35;;;;;;;15.63;6.37;;;;;;;15.49;88.17;101379.72;5097012;28;20222;-80
2022/10/29 02:12:11;;;;;;;14.13;7.27;;;;;;;15.48;88.45;101373.50;5096137;28;20225;-80
2022/10/29 02:14:41;;;;;;;9.23;6.10;;;;;;;15.48;88.60;101369.94;5094485;28;20236;-81
2022/10/29 02:17:09;;;;;;;14.77;6.70;;;;;;;15.48;88.71;101378.88;5089260;28;20636;-80
2022/10/29 02:19:36;;;;;;;13.30;7.50;;;;;;;15.50;89.18;101370.69;5091214;28;20570;-80
2022/10/29 02:22:03;;;;;;;11.17;7.10;;;;;;;15.50;89.19;101373.38;5092379;28;20282;-80
2022/10/29 02:24:30;;;;;;;11.63;6.37;;;;;;;15.50;89.03;101368.00;5094079;28;20224;-81
2022/10/29 02:26:56;;;;;;;9.43;5.83;;;;;;;15.50;89.10;101365.34;5094645;28;20211;-80
2022/10/29 02:29:23;;;;;;;10.53;6.37;;;;;;;15.49;89.38;101374.34;5094557;28;20212;-80
2022/10/29 02:31:49;;;;;;;12.97;7.03;;;;;;;15.49;89.37;101382.41;5094824;28;20203;-81
2022/10/29 02:34:17;;;;;;;13.10;7.43;;;;;;;15.48;89.44;101378.00;5095143;28;20221;-80
2022/10/29 02:36:43;;;;;;;12.73;6.60;;;;;;;15.46;89.44;101385.31;5094634;28;20212;-81
2022/10/29 02:39:10;;;;;;;11.90;6.50;;;;;;;15.46;89.38;101377.25;5087875;28;20219;-81
2022/10/29 02:41:36;;;;;;;13.13;6.13;;;;;;;15.45;89.47;101360.28;5094857;28;20229;-81
2022/10/29 02:44:03;;;;;;;10.43;6.30;;;;;;;15.44;89.93;101350.53;5094534;28;20240;-81
2022/10/29 02:46:30;;;;;;;12.43;6.10;;;;;;;15.44;89.73;101360.41;5094519;28;20672;-81
2022/10/29 02:48:56;;;;;;;10.20;5.40;;;;;;;15.43;89.57;101361.38;5095133;28;20197;-82
2022/10/29 02:51:24;;;;;;;13.33;5.90;;;;;;;15.40;89.36;101348.19;5094432;28;20703;-80
2022/10/29 02:53:50;;;;;;;9.20;5.50;;;;;;;15.36;89.39;101344.00;5094436;28;20207;-81
2022/10/29 02:56:17;;;;;;;10.27;6.30;;;;;;;15.33;89.32;101349.59;5087970;28;20205;-81
2022/10/29 02:58:43;;;;;;;12.83;6.40;;;;;;;15.32;89.63;101353.25;5094761;28;20677;-81
2022/10/29 03:01:10;;;;;;;13.20;6.10;;;;;;;15.31;89.45;101349.69;5094918;28;20221;-80
2022/10/29 03:03:36;;;;;;;9.83;6.37;;;;;;;15.29;89.77;101355.16;5094316;28;20217;-81
2022/10/29 03:06:03;;;;;;;11.93;6.67;;;;;;;15.28;89.54;101353.44;5094378;28;20219;-81
2022/10/29 03:08:31;;;;;;;15.03;6.63;;;;;;;15.27;90.27;101343.69;5094523;28;20603;-80
2022/10/29 03:10:57;;;;;;;12.83;6.63;;;;;;;15.26;89.94;101344.66;5095131;28;20683;-80
2022/10/29 03:13:24;;;;;;;15.83;6.43;;;;;;;15.25;90.06;101345.63;5095245;28;20205;-79
2022/10/29 03:15:50;;;;;;;15.70;6.10;;;;;;;15.24;90.11;101335.84;5094771;28;20224;-79
2022/10/29 03:18:17;;;;;;;11.90;6.13;;;;;;;15.23;90.07;101333.28;5093869;28;20218;-80
2022/10/29 03:20:44;;;;;;;10.43;5.67;;;;;;;15.20;90.03;101331.69;5094174;28;20204;-80
2022/10/29 03:23:10;;;;;;;10.30;6.37;;;;;;;15.17;89.86;101321.19;5094574;28;20196;-80
2022/10/29 03:25:38;;;;;;;17.33;6.43;;;;;;;15.14;89.83;101324.06;5094842;28;20227;-80
2022/10/29 03:28:05;;;;;;;9.57;6.43;;;;;;;15.12;90.23;101325.16;5094269;28;20213;-80
2022/10/29 03:30:31;;;;;;;12.57;6.47;;;;;;;15.10;89.96;101322.56;5092967;28;20209;-80
2022/10/29 03:32:58;;;;;;;13.97;6.33;;;;;;;15.07;90.42;101321.94;5095457;28;20205;-80
2022/10/29 03:35:24;;;;;;;12.00;6.80;;;;;;;15.06;90.42;101318.38;5094230;28;20221;-79
2022/10/29 03:37:51;;;;;;;12.20;6.83;;;;;;;15.05;91.15;101319.34;5095481;28;20215;-79
2022/10/29 03:40:18;;;;;;;14.57;7.00;;;;;;;15.03;91.02;101315.94;5094688;28;20204;-80
2022/10/29 03:42:46;;;;;;;15.87;6.70;;;;;;;15.02;91.08;101324.09;5094436;28;21089;-79
2022/10/29 03:45:14;;;;;;;13.07;7.20;;;;;;;14.99;91.44;101330.53;5094234;28;20233;-80
2022/10/29 03:47:40;;;;;;;16.80;6.77;;;;;;;14.97;91.64;101334.28;5094375;28;20213;-80
2022/10/29 03:50:08;;;;;;;13.37;6.23;;;;;;;14.94;91.86;101332.69;5094380;28;20207;-80
2022/10/29 03:52:34;;;;;;;11.20;6.33;;;;;;;14.90;91.70;101339.22;5093477;28;20202;-80
2022/10/29 03:55:01;;;;;;;9.93;6.70;;;;;;;14.87;91.61;101345.66;5093547;28;20220;-80
2022/10/29 03:57:28;;;;;;;16.50;6.47;;;;;;;14.83;92.10;101343.31;5093065;28;20204;-80
2022/10/29 03:59:55;;;;;;;12.20;5.90;;;;;;;14.82;92.17;101333.56;5093443;28;20211;-80
2022/10/29 04:02:22;;;;;;;14.03;6.80;;;;;;;14.80;92.51;101338.16;5092809;28;20298;-80
2022/10/29 04:04:49;;;;;;;15.00;6.77;;;;;;;14.78;92.36;101337.41;5092379;28;20227;-80
2022/10/29 04:07:15;;;;;;;11.23;6.23;;;;;;;14.76;92.16;101334.84;5094180;28;20202;-81
2022/10/29 04:09:42;;;;;;;13.77;6.53;;;;;;;14.75;92.11;101343.84;5094103;28;20205;-80
2022/10/29 04:12:08;;;;;;;12.13;6.70;;;;;;;14.73;92.02;101337.72;5094149;28;20203;-81
2022/10/29 04:14:35;;;;;;;15.30;7.13;;;;;;;14.70;91.90;101345.97;5095665;28;20228;-80
2022/10/29 04:17:05;;;;;;;11.53;6.30;;;;;;;14.69;92.31;101343.44;5094884;28;20189;-80
2022/10/29 04:19:32;;;;;;;10.70;6.47;;;;;;;14.66;91.82;101347.19;5092586;28;20204;-80
2022/10/29 04:21:58;;;;;;;9.80;6.20;;;;;;;14.64;92.10;101348.25;5094418;28;20231;-79
2022/10/29 04:24:25;;;;;;;15.20;7.70;;;;;;;14.63;92.05;101349.22;5092676;28;20224;-80
2022/10/29 04:26:51;;;;;;;16.33;7.33;;;;;;;14.61;92.19;101343.09;5095612;28;20210;-79
2022/10/29 04:29:18;;;;;;;16.00;7.83;;;;;;;14.62;93.00;101344.81;5095102;28;20207;-80
2022/10/29 04:31:44;;;;;;;14.20;7.73;;;;;;;14.63;92.84;101343.84;5096287;28;20192;-81
2022/10/29 04:34:12;;;;;;;12.63;7.33;;;;;;;14.62;93.25;101342.13;5088307;28;20901;-80
2022/10/29 04:36:39;;;;;;;12.50;6.63;;;;;;;14.61;93.06;101341.28;5084396;28;20198;-80
2022/10/29 04:39:05;;;;;;;13.13;7.13;;;;;;;14.57;93.15;101340.63;5096667;28;20739;-81
2022/10/29 04:41:34;;;;;;;16.10;6.40;;;;;;;14.55;93.11;101347.91;5099361;28;20248;-80
2022/10/29 04:44:00;;;;;;;13.30;6.73;;;;;;;14.55;93.78;101352.41;5099389;28;20228;-81
2022/10/29 04:46:27;;;;;;;13.63;7.37;;;;;;;14.54;94.09;101353.38;5098460;28;20579;-80
2022/10/29 04:48:53;;;;;;;11.93;6.57;;;;;;;14.52;94.80;101348.09;5098819;28;20445;-81
2022/10/29 04:51:23;;;;;;;15.13;6.67;;;;;;;14.53;94.45;101338.25;5098035;28;20685;-80
2022/10/29 04:53:49;;;;;;;13.63;7.17;;;;;;;14.50;94.93;101336.66;5098690;28;20647;-80
2022/10/29 04:56:19;;;;;;;16.07;6.97;;;;;;;14.49;94.68;101332.25;5098494;28;20209;-80
2022/10/29 04:58:45;;;;;;;13.10;6.90;;;;;;;14.45;94.38;101330.75;5098822;28;20204;-79
2022/10/29 05:01:12;;;;;;;13.40;6.93;;;;;;;14.43;94.68;101335.34;5097017;28;20540;-80
2022/10/29 05:03:38;;;;;;;17.37;8.13;;;;;;;14.44;95.84;101347.78;5097524;28;20709;-80
2022/10/29 05:06:06;;;;;;;17.80;10.30;;;;;;;14.47;95.93;101333.31;5097374;28;20712;-80
2022/10/29 05:08:34;;;;;;;25.00;10.43;;;;;;;14.53;97.12;101330.19;5097950;28;20208;-80
2022/10/29 05:11:02;;;;;;;20.37;10.03;;;;;;;14.61;98.19;101340.41;5098798;28;20684;-80
2022/10/29 05:13:29;;;;;;;21.20;10.30;;;;;;;14.69;98.66;101330.03;5099574;28;20223;-81
2022/10/29 05:15:56;;;;;;;24.13;10.30;;;;;;;14.77;99.27;101338.38;5098008;28;20216;-80
2022/10/29 05:18:22;;;;;;;24.97;10.33;;;;;;;14.83;99.67;101333.44;5096268;28;20663;-80
2022/10/29 05:20:52;;;;;;;16.80;9.87;;;;;;;14.90;99.67;101348.13;5098434;28;20565;-80
2022/10/29 05:23:19;;;;;;;20.90;10.47;;;;;;;14.96;100.00;101340.63;5089174;28;20224;-80
2022/10/29 05:25:48;;;;;;;16.47;8.57;;;;;;;15.01;100.00;101339.34;5098058;28;20216;-80
2022/10/29 05:28:17;;;;;;;17.63;9.53;;;;;;;15.04;99.98;101331.09;5098537;28;20227;-80
2022/10/29 05:30:44;;;;;;;19.73;9.20;;;;;;;15.10;99.52;101329.75;5097629;28;20208;-81
2022/10/29 05:33:14;;;;;;;14.33;8.93;;;;;;;15.12;99.62;101331.38;5098058;28;20647;-79
2022/10/29 05:35:40;;;;;;;22.13;9.30;;;;;;;15.14;99.46;101328.59;5088867;28;20228;-80
2022/10/29 05:38:07;;;;;;;19.00;8.93;;;;;;;15.17;99.60;101328.38;5098668;28;20592;-80
2022/10/29 05:40:33;;;;;;;19.90;8.93;;;;;;;15.21;99.39;101340.59;5097686;28;20204;-80
2022/10/29 05:43:01;;;;;;;15.90;8.23;;;;;;;15.24;99.53;101341.22;5097538;28;20233;-80
2022/10/29 05:45:27;;;;;;;17.90;8.00;;;;;;;15.29;99.33;101338.22;5097886;28;20232;-80
2022/10/29 05:47:57;;;;;;;12.67;7.27;;;;;;;15.35;99.34;101344.97;5097642;28;20198;-80
2022/10/29 05:50:24;;;;;;;14.43;7.37;;;;;;;15.41;99.07;101349.88;5097547;28;20641;-80
2022/10/29 05:52:55;;;;;;;13.90;7.83;;;;;;;15.45;98.67;101351.38;5096280;28;20196;-80
2022/10/29 05:55:22;;;;;;;18.73;7.70;;;;;;;15.47;98.52;101344.94;5099472;28;20249;-80
2022/10/29 05:57:48;;;;;;;18.80;8.17;;;;;;;15.49;98.31;101337.63;5095695;28;20225;-81
2022/10/29 06:00:16;;;;;;;14.27;7.80;;;;;;;15.51;98.01;101343.75;5095771;28;20326;-80
2022/10/29 06:02:44;;;;;;;16.17;7.90;;;;;;;15.57;97.84;101345.16;5096926;28;20225;-79
2022/10/29 06:05:10;;;;;;;17.50;8.63;;;;;;;15.57;97.51;101342.47;5097033;28;20285;-80
2022/10/29 06:07:36;;;;;;;15.40;8.50;;;;;;;15.58;97.32;101350.44;5098688;28;20215;-82
2022/10/29 06:10:03;;;;;;;16.07;9.37;;;;;;;15.58;97.09;101350.44;5098300;28;20689;-81
2022/10/29 06:12:31;;;;;;;15.77;9.00;;;;;;;15.60;97.22;101348.47;5097576;28;20294;-80
2022/10/29 06:14:58;;;;;;;16.07;8.40;;;;;;;15.62;96.87;101356.41;5097514;28;20225;-80
2022/10/29 06:17:26;;;;;;;18.20;8.63;;;;;;;15.63;96.82;101364.34;5097436;28;20246;-81
2022/10/29 06:19:52;;;;;;;19.17;8.70;;;;;;;15.66;96.56;101359.72;5098651;28;20649;-81
2022/10/29 06:22:19;;;;;;;18.77;8.30;;;;;;;15.69;96.33;101356.81;5098426;28;20230;-81
2022/10/29 06:24:45;;;;;;;16.43;8.07;;;;;;;15.71;96.24;101361.13;5098049;28;20230;-81
2022/10/29 06:27:12;;;;;;;16.67;8.10;;;;;;;15.72;96.18;101354.78;5097187;28;20205;-80
2022/10/29 06:29:38;;;;;;;17.20;8.37;;;;;;;15.73;95.98;101356.50;5097649;28;20204;-80
2022/10/29 06:32:05;;;;;;;14.47;7.50;;;;;;;15.75;95.72;101357.25;5097923;28;20204;-80
2022/10/29 06:34:32;;;;;;;16.10;8.13;;;;;;;15.77;95.56;101349.91;5093521;28;20233;-80
2022/10/29 06:36:59;;;;;;;23.57;8.60;;;;;;;15.81;95.19;101351.41;5097565;28;20209;-80
2022/10/29 06:39:25;;;;;;;19.00;8.17;;;;;;;15.83;95.15;101354.84;5094909;28;20219;-80
2022/10/29 06:41:52;;;;;;;12.13;7.13;;;;;;;15.85;95.10;101339.47;5097029;28;20227;-80
2022/10/29 06:44:18;;;;;;;16.90;8.50;;;;;;;15.89;95.01;101354.38;5096422;28;20223;-80
2022/10/29 06:46:45;;;;;;;19.70;7.60;;;;;;;15.93;94.67;101355.88;5096322;28;20218;-80
2022/10/29 06:49:11;;;;;;;16.50;7.87;;;;;;;15.95;94.13;101359.28;5096122;28;20214;-81
2022/10/29 06:51:39;;;;;;;14.27;7.43;;;;;;;15.92;93.67;101356.84;5095661;28;20202;-80
2022/10/29 06:54:05;;;;;;;14.40;7.73;;;;;;;15.87;93.17;101367.06;5096570;28;20225;-81
2022/10/29 06:56:32;;;;;;;19.07;8.97;;;;;;;15.80;92.80;101355.06;5096630;28;20569;-81
2022/10/29 06:58:59;;;;;;;17.77;8.67;;;;;;;15.77;92.89;101359.78;5090769;28;20205;-80
2022/10/29 07:01:25;;;;;;;17.43;8.40;;;;;;;15.72;92.65;101340.50;5098062;28;20216;-80
2022/10/29 07:03:52;;;;;;;16.80;8.47;;;;;;;15.70;92.91;101345.13;5095455;28;20257;-81
2022/10/29 07:06:18;;;;;;;15.20;8.20;;;;;;;15.66;92.75;101347.16;5094324;28;20212;-80
2022/10/29 07:08:46;;;;;;;16.43;8.30;;;;;;;15.64;93.13;101351.78;5096623;28;20196;-80
2022/10/29 07:11:12;;;;;;;22.57;9.40;;;;;;;15.60;93.00;101342.22;5096715;28;20221;-80
2022/10/29 07:13:39;;;;;;;16.90;8.63;;;;;;;15.58;92.96;101344.19;5087265;28;20206;-80
2022/10/29 07:16:06;;;;;;;13.47;8.47;;;;;;;15.54;92.98;101348.91;5093535;28;20222;-80
2022/10/29 07:18:33;;;;;;;16.13;8.80;;;;;;;15.51;93.16;101346.44;5096625;28;20218;-81
2022/10/29 07:21:02;;;;;;;14.57;8.80;;;;;;;15.50;93.04;101351.91;5096668;28;20210;-80
2022/10/29 07:23:29;;;;;;;17.93;8.60;;;;;;;15.48;93.59;101362.75;5095294;28;20324;-80
2022/10/29 07:25:56;;;;;;;22.07;8.80;;;;;;;15.49;93.50;101367.16;5097151;28;20609;-80
2022/10/29 07:28:24;;;;;;;14.13;8.70;;;;;;;15.48;93.96;101373.50;5095270;28;20203;-80
2022/10/29 07:30:51;;;;;;;12.53;8.33;;;;;;;15.49;94.03;101375.22;5084085;28;20577;-81
2022/10/29 07:33:18;;;;;;;14.30;8.63;;;;;;;15.49;94.39;101372.53;5081484;28;20200;-80
2022/10/29 07:35:45;;;;;;;18.73;8.13;;;;;;;15.49;94.53;101368.97;5085387;28;20231;-80
2022/10/29 07:38:12;;;;;;;16.47;9.50;;;;;;;15.50;94.90;101373.38;5083050;28;20209;-80
2022/10/29 07:40:45;;;;;;;20.67;9.83;;;;;;;15.50;94.66;101370.69;5082945;28;20217;-81
2022/10/29 07:43:13;;;;;;;16.33;9.43;;;;;;;15.49;94.93;101377.03;5083118;28;20216;-81
2022/10/29 07:45:40;;;;;;;15.87;9.17;;;;;;;15.48;94.94;101365.44;5079194;28;20759;-81
2022/10/29 07:48:07;;;;;;;18.23;8.57;;;;;;;15.49;94.77;101366.31;5083220;28;20213;-83
2022/10/29 07:50:34;;;;;;;17.27;9.63;;;;;;;15.51;95.10;101369.72;5085538;28;20208;-83
2022/10/29 07:53:01;;;;;;;20.10;9.57;;;;;;;15.52;95.29;101369.63;5083289;28;20205;-83
2022/10/29 07:55:28;;;;;;;17.57;8.57;;;;;;;15.55;95.45;101371.22;5083748;28;20225;-83
2022/10/29 07:58:01;;;;;;;16.23;8.60;;;;;;;15.58;95.53;101371.91;5086230;28;20224;-83
2022/10/29 08:00:29;;;;;;;13.97;8.63;;;;;;;15.63;95.82;101369.72;5085515;28;20214;-83
2022/10/29 08:02:56;;;;;;;17.33;9.03;;;;;;;15.68;96.25;101373.91;5089394;28;20706;-83
2022/10/29 08:05:24;;;;;;;19.83;9.63;;;;;;;15.74;95.88;101377.00;5086302;28;20226;-83
2022/10/29 08:07:53;;;;;;;17.13;8.80;;;;;;;15.79;95.99;101368.59;5084373;28;20211;-83
2022/10/29 08:10:19;;;;;;;19.93;9.20;;;;;;;15.81;95.79;101370.19;5083281;28;20210;-84
2022/10/29 08:12:50;;;;;;;17.73;8.43;;;;;;;15.85;95.92;101368.16;5089815;28;20207;-85
2022/10/29 08:15:17;;;;;;;24.60;9.27;;;;;;;15.89;95.59;101378.56;5086765;28;20276;-85
2022/10/29 08:17:45;;;;;;;16.60;8.57;;;;;;;15.94;95.91;101365.63;5089476;28;20200;-84
2022/10/29 08:20:15;;;;;;;15.80;8.13;;;;;;;16.00;96.01;101371.53;5094360;28;20290;-85
2022/10/29 08:22:42;;;;;;;17.30;8.20;;;;;;;16.05;95.92;101374.72;5085638;28;20230;-86
2022/10/29 08:25:09;;;;;;;12.50;8.13;;;;;;;16.10;95.86;101373.44;5091873;28;20229;-86
2022/10/29 08:27:36;;;;;;;18.93;8.70;;;;;;;16.16;95.63;101372.94;5090789;28;20657;-86
2022/10/29 08:30:04;;;;;;;15.70;8.43;;;;;;;16.21;95.53;101384.22;5092238;28;20209;-86
2022/10/29 08:32:30;;;;;;;14.27;7.57;;;;;;;16.27;95.38;101386.44;5091628;28;20221;-86
2022/10/29 08:34:58;;;;;;;19.47;8.17;;;;;;;16.33;95.47;101380.59;5087906;28;20225;-85
2022/10/29 08:37:24;;;;;;;16.27;8.23;;;;;;;16.40;95.27;101378.31;5092181;28;20208;-85
2022/10/29 08:39:51;;;;;;;14.13;7.03;;;;;;;16.45;94.79;101377.97;5091654;28;20213;-86
2022/10/29 08:42:31;;;;;;;13.90;8.70;;;;;;;16.50;94.57;101370.38;5092611;28;20198;-85
2022/10/29 08:45:17;;;;;;;15.47;8.50;;;;;;;16.56;94.34;101367.22;5089024;28;20233;-85
2022/10/29 08:48:03;;;;;;;16.90;7.73;;;;;;;16.60;93.94;101369.56;5089397;28;20585;-85
2022/10/29 08:50:39;;;;;;;17.63;8.07;;;;;;;16.65;93.54;101356.66;5086494;28;20210;-84
2022/10/29 08:53:14;;;;;;;18.90;8.00;;;;;;;16.71;93.40;101357.16;5090460;28;20203;-85
2022/10/29 08:55:41;;;;;;;16.00;7.13;;;;;;;16.77;93.19;101346.78;5088779;28;20229;-85
2022/10/29 08:58:18;;;;;;;15.07;7.10;;;;;;;16.82;92.43;101343.72;5092898;28;21297;-85
2022/10/29 09:00:49;;;;;;;13.13;7.37;;;;;;;16.88;91.98;101336.00;5086349;28;20200;-85
2022/10/29 09:03:15;;;;;;;13.87;6.77;;;;;;;16.97;91.63;101326.38;5087547;28;20224;-85
2022/10/29 09:05:53;;;;;;;14.67;7.10;;;;;;;17.07;91.50;101321.97;5094857;28;20235;-84
2022/10/29 09:08:30;;;;;;;13.87;6.10;;;;;;;17.14;91.15;101325.88;5090310;28;20205;-86
2022/10/29 09:11:06;;;;;;;11.60;6.90;;;;;;;17.22;90.58;101336.00;5089906;28;20215;-84
2022/10/29 09:13:45;;;;;;;11.60;7.53;;;;;;;17.30;90.43;101330.88;5088938;28;20207;-85
2022/10/29 09:16:36;;;;;;;13.90;6.97;;;;;;;17.40;90.16;101333.69;5091410;28;20202;-84
2022/10/29 09:19:33;;;;;;;15.37;7.10;;;;;;;17.46;89.48;101333.19;5086480;28;20244;-85
2022/10/29 09:22:12;;;;;;;13.77;6.13;;;;;;;17.51;88.90;101331.00;5087289;28;20584;-84
2022/10/29 09:24:45;;;;;;;18.23;7.27;;;;;;;17.54;88.44;101336.13;5089009;28;20227;-85
2022/10/29 09:27:17;;;;;;;11.93;7.27;;;;;;;17.57;88.15;101325.94;5089414;28;20201;-85
2022/10/29 09:29:58;;;;;;;14.20;7.30;;;;;;;17.62;87.81;101330.94;5086087;28;20678;-85
2022/10/29 09:32:29;;;;;;;14.13;7.37;;;;;;;17.65;87.62;101333.44;5084601;28;20691;-84
2022/10/29 09:35:00;;;;;;;15.90;7.10;;;;;;;17.69;87.56;101337.59;5084434;28;20224;-84
2022/10/29 09:37:35;;;;;;;14.47;6.50;;;;;;;17.75;87.28;101355.06;5088839;28;20216;-85
2022/10/29 09:40:06;;;;;;;15.30;6.00;;;;;;;17.78;87.27;101352.97;5088619;28;20192;-85
2022/10/29 09:42:37;;;;;;;7.83;5.93;;;;;;;17.84;87.23;101351.63;5082571;28;20278;-85
2022/10/29 09:45:08;;;;;;;9.43;6.00;;;;;;;17.89;86.85;101346.72;5087271;28;20230;-84
2022/10/29 09:47:41;;;;;;;10.53;6.67;;;;;;;17.93;86.64;101338.25;5091103;28;20205;-85
2022/10/29 09:50:19;;;;;;;13.80;6.50;;;;;;;17.98;86.42;101330.63;5083338;28;20205;-85
2022/10/29 09:52:48;;;;;;;12.70;6.47;;;;;;;18.06;86.23;101315.66;5086740;28;20222;-85
2022/10/29 09:55:24;;;;;;;16.70;7.17;;;;;;;18.10;85.97;101323.34;5088970;28;20225;-84
2022/10/29 09:57:51;;;;;;;16.13;6.77;;;;;;;18.13;85.25;101312.31;5084412;28;20201;-84
2022/10/29 10:00:21;;;;;;;9.07;5.50;;;;;;;18.19;85.24;101316.34;5091512;28;20232;-85
2022/10/29 10:02:54;;;;;;;10.73;6.17;;;;;;;18.22;85.04;101319.63;5090248;28;20216;-85
2022/10/29 10:05:26;;;;;;;14.53;5.77;;;;;;;18.29;84.69;101328.03;5083792;28;20313;-84
2022/10/29 10:08:07;;;;;;;10.83;6.33;;;;;;;18.33;84.34;101330.34;5084311;28;20206;-85
2022/10/29 10:10:36;;;;;;;15.00;6.83;;;;;;;18.37;84.19;101322.88;5087402;28;20198;-85
2022/10/29 10:13:03;;;;;;;14.77;7.10;;;;;;;18.42;83.87;101323.34;5084501;28;20729;-84
2022/10/29 10:15:32;;;;;;;15.27;7.57;;;;;;;18.46;83.82;101313.09;5084852;28;20328;-84
2022/10/29 10:18:01;;;;;;;15.77;7.30;;;;;;;18.48;83.51;101311.13;5084570;28;20215;-84
2022/10/29 10:20:32;;;;;;;10.30;7.00;;;;;;;18.54;83.83;101310.63;5084377;28;20658;-84
2022/10/29 10:22:59;;;;;;;12.80;5.97;;;;;;;18.58;83.66;101309.38;5092430;28;20236;-85
2022/10/29 10:25:37;;;;;;;14.60;5.80;;;;;;;18.60;83.14;101305.59;5090100;28;20233;-85
2022/10/29 10:28:14;;;;;;;12.77;5.50;;;;;;;18.62;82.72;101303.63;5085808;28;20210;-86
2022/10/29 10:30:42;;;;;;;12.83;5.57;;;;;;;18.63;82.21;101294.50;5090770;28;20213;-83
2022/10/29 10:33:22;;;;;;;12.40;5.20;;;;;;;18.65;81.69;101292.53;5092184;28;20209;-86
2022/10/29 10:35:49;;;;;;;13.20;6.10;;;;;;;18.67;81.11;101295.97;5087860;28;20226;-85
2022/10/29 10:38:15;;;;;;;16.90;6.43;;;;;;;18.68;80.95;101286.88;5088292;28;20207;-86
2022/10/29 10:40:55;;;;;;;11.20;5.23;;;;;;;18.71;80.84;101288.47;5088901;28;20292;-86
2022/10/29 10:43:24;;;;;;;11.50;5.60;;;;;;;18.72;80.27;101280.25;5097991;28;20210;-83
2022/10/29 10:45:55;;;;;;;9.73;5.33;;;;;;;18.74;79.65;101285.50;5096968;28;20222;-86
2022/10/29 10:48:23;;;;;;;9.10;5.70;;;;;;;18.75;79.19;101276.41;5094559;28;20199;-85
2022/10/29 10:50:51;;;;;;;17.73;8.40;;;;;;;18.78;79.19;101268.06;5096636;28;20202;-85
2022/10/29 10:53:20;;;;;;;18.27;6.27;;;;;;;18.83;79.77;101259.53;5097875;28;20656;-84
2022/10/29 10:55:51;;;;;;;12.93;4.80;;;;;;;18.88;80.08;101255.44;5086636;28;20231;-85
2022/10/29 10:58:23;;;;;;;9.47;5.47;;;;;;;18.92;79.87;101247.94;5086201;28;20214;-85
2022/10/29 11:00:57;;;;;;;12.00;6.03;;;;;;;18.96;79.89;101252.09;5087496;28;20202;-85
2022/10/29 11:03:31;;;;;;;13.40;5.53;;;;;;;19.00;79.75;101248.94;5090055;28;20214;-85
2022/10/29 11:06:07;;;;;;;12.23;5.00;;;;;;;19.04;79.58;101244.13;5089371;28;20293;-86
2022/10/29 11:08:42;;;;;;;13.73;5.33;;;;;;;19.10;79.23;101235.50;5093157;28;20202;-85
2022/10/29 11:11:14;;;;;;;11.47;4.80;;;;;;;19.14;78.99;101238.78;5094087;28;20209;-87
2022/10/29 11:13:42;;;;;;;12.87;5.23;;;;;;;19.18;78.61;101227.53;5090243;28;20211;-86
2022/10/29 11:16:15;;;;;;;10.27;4.90;;;;;;;19.22;78.30;101226.28;5086885;28;20232;-85
2022/10/29 11:18:48;;;;;;;13.97;5.27;;;;;;;19.26;77.74;101227.72;5085041;28;20227;-85
2022/10/29 11:21:20;;;;;;;8.73;5.27;;;;;;;19.28;77.37;101239.25;5084082;28;20197;-86
2022/10/29 11:23:56;;;;;;;9.80;4.80;;;;;;;19.31;76.77;101230.88;5093391;28;20224;-85
2022/10/29 11:26:32;;;;;;;9.30;4.97;;;;;;;19.36;76.60;101227.72;5087292;28;20210;-86